Happy Days — WDB6140 — position and weather

sailwx.info

Track history (hours):
 
Tides and Currents Weather Stations Pressure Air Temp Water Temp Dewpoint Dewpoint Depression Visibility Wind Speed Wind Dir Waves Ship Positions

Happy Days

Owner: nazar, joe d, san francisco, CA. More information available from US FCC via Universal Licensing System and Coast Guard Vessel Documentation Center.

Last reported at 2018-Jun-21 02:49 UTC. Time now 2018-Jun-24 20:32 UTC.
Position N 37°49' W 122°25'.

Length 13 m.

Type: Fishing. MMSI: 366918840.

Date/timePositionNaut miles runAvg speedWind from/ knotsBaromVisibWave heightAir tempDewpointWater temp
2018-Jun-21 02:49N 37°49' W 122°25'0 0.0
2018-Jun-21 02:22N 37°49' W 122°25'0 0.5
2018-Jun-21 01:57N 37°49' W 122°24'0 1.0
2018-Jun-21 01:29N 37°48' W 122°25'0 0.1
2018-Jun-21 00:55N 37°49' W 122°25'1 3.5
2018-Jun-21 00:30N 37°50' W 122°26'1 2.4
2018-Jun-20 23:59N 37°49' W 122°25'0 0.5
2018-Jun-20 23:28N 37°48' W 122°25'0 0.3
2018-Jun-20 22:55N 37°49' W 122°25'0 0.3
2018-Jun-20 22:29N 37°49' W 122°25'3 5.7
2018-Jun-20 22:00N 37°49' W 122°28'1 0.9
2018-Jun-20 21:16N 37°49' W 122°29'1 2.5
2018-Jun-20 20:54N 37°48' W 122°30'4 8.8
2018-Jun-20 20:30N 37°49' W 122°25'0 0.5
2018-Jun-20 19:54N 37°49' W 122°25'512.2
2018-Jun-20 19:29N 37°47' W 122°31'2 0.3
2018-Jun-20 13:04N 37°48' W 122°30'118.8
2018-Jun-20 13:00N 37°49' W 122°28'3 5.2
2018-Jun-20 12:30N 37°49' W 122°25'0 0.0
2018-Jun-20 02:38N 37°49' W 122°25'0 0.0
2018-Jun-20 02:09N 37°49' W 122°25'0 0.3
2018-Jun-20 01:45N 37°49' W 122°24'414.1
2018-Jun-20 01:30N 37°49' W 122°29'1 1.1
2018-Jun-20 01:00N 37°48' W 122°29'3 5.3
2018-Jun-20 00:30N 37°50' W 122°26'2 3.1
2018-Jun-19 23:53N 37°49' W 122°25'0 0.0
2018-Jun-19 23:22N 37°49' W 122°25'4 9.8
2018-Jun-19 22:57N 37°48' W 122°30'4 7.5
2018-Jun-19 22:27N 37°47' W 122°34'3 6.7
2018-Jun-19 22:00N 37°48' W 122°31'3 6.7
2018-Jun-19 21:30N 37°49' W 122°27'2 3.5
2018-Jun-19 20:57N 37°49' W 122°25'0 0.0
2018-Jun-19 20:20N 37°49' W 122°25'310.3
2018-Jun-19 20:00N 37°49' W 122°29'5 8.6
2018-Jun-19 19:28N 37°48' W 122°35'2 4.2
2018-Jun-19 19:00N 37°48' W 122°32'4 7.5
2018-Jun-19 18:30N 37°49' W 122°28'2 4.7
2018-Jun-19 17:59N 37°49' W 122°25'0 0.3
2018-Jun-19 17:26N 37°49' W 122°24'4 8.6
2018-Jun-19 17:00N 37°49' W 122°29'3 6.4
2018-Jun-19 16:29N 37°47' W 122°33'1 2.1
2018-Jun-19 15:56N 37°48' W 122°33'410.4
2018-Jun-19 15:30N 37°49' W 122°27'2 4.0
2018-Jun-19 15:00N 37°49' W 122°25'0 0.0
2018-Jun-19 03:53N 37°49' W 122°25'1 2.8
2018-Jun-19 03:24N 37°49' W 122°26'1 1.7
2018-Jun-19 02:59N 37°49' W 122°25'1 1.5
2018-Jun-19 02:30N 37°49' W 122°25'0 0.7
2018-Jun-19 02:00N 37°49' W 122°25'4 8.1
2018-Jun-19 01:30N 37°49' W 122°30'0 0.9
2018-Jun-19 01:00N 37°49' W 122°29'1 2.4
2018-Jun-19 00:30N 37°49' W 122°28'3 2.3
2018-Jun-18 23:23N 37°49' W 122°25'3 7.5
2018-Jun-18 23:01N 37°49' W 122°28'4 6.4
2018-Jun-18 22:28N 37°47' W 122°32'2 3.6
2018-Jun-18 22:00N 37°49' W 122°32'4 7.7
2018-Jun-18 21:30N 37°49' W 122°27'2 3.6
2018-Jun-18 20:58N 37°49' W 122°25'0 0.0
2018-Jun-18 20:28N 37°49' W 122°25'2 4.1
2018-Jun-18 20:00N 37°49' W 122°27'5 8.7
2018-Jun-18 19:27N 37°48' W 122°33'1 2.0
2018-Jun-18 19:00N 37°48' W 122°32'4 8.0
2018-Jun-18 18:30N 37°49' W 122°27'2 4.4
2018-Jun-18 18:00N 37°49' W 122°25'0 0.2
2018-Jun-18 17:27N 37°49' W 122°24'611.6
2018-Jun-18 16:58N 37°48' W 122°32'2 4.0
2018-Jun-18 16:30N 37°48' W 122°34'1 2.5
2018-Jun-18 15:56N 37°47' W 122°32'4 8.3
2018-Jun-18 15:30N 37°49' W 122°28'3 5.1
2018-Jun-18 14:54N 37°49' W 122°25'1 1.2
2018-Jun-18 14:28N 37°49' W 122°25'1 0.1
2018-Jun-18 04:40N 37°49' W 122°24'0 0.8
2018-Jun-18 04:04N 37°48' W 122°25'0 3.2
2018-Jun-18 03:59N 37°49' W 122°25'3 5.4
2018-Jun-18 03:30N 37°49' W 122°29'3 1.7
2018-Jun-18 01:47N 37°49' W 122°25'1 4.6
2018-Jun-18 01:30N 37°50' W 122°25'1 2.2
2018-Jun-18 01:00N 37°49' W 122°26'0 0.4
2018-Jun-17 23:50N 37°49' W 122°25'2 7.2
2018-Jun-17 23:30N 37°49' W 122°28'2 1.5
2018-Jun-17 21:53N 37°49' W 122°25'2 6.4
2018-Jun-17 21:30N 37°49' W 122°28'2 1.7
2018-Jun-17 20:02N 37°48' W 122°25'0 0.1
2018-Jun-17 19:58N 37°48' W 122°25'1 0.0
2018-Jun-17 01:20N 37°49' W 122°26'1 1.9
2018-Jun-17 00:51N 37°49' W 122°25'0 0.0
2018-Jun-17 00:27N 37°49' W 122°25'2 5.0
2018-Jun-17 00:00N 37°49' W 122°27'3 5.7
2018-Jun-16 23:30N 37°48' W 122°31'1 1.3
2018-Jun-16 23:00N 37°48' W 122°30'3 5.6
2018-Jun-16 22:30N 37°49' W 122°27'2 2.5
2018-Jun-16 21:45N 37°49' W 122°25'0 0.3
2018-Jun-16 21:23N 37°49' W 122°24'410.4
2018-Jun-16 20:59N 37°48' W 122°30'2 3.5
2018-Jun-16 20:30N 37°48' W 122°32'2 4.1
2018-Jun-16 19:58N 37°49' W 122°29'3 7.3
2018-Jun-16 19:30N 37°50' W 122°25'2 3.9
2018-Jun-16 18:58N 37°49' W 122°25'0 0.0
2018-Jun-16 18:28N 37°49' W 122°25'0 0.0
2018-Jun-16 17:58N 37°49' W 122°25'4 7.7
2018-Jun-16 17:30N 37°49' W 122°29'3 5.1
2018-Jun-16 17:00N 37°47' W 122°32'4 7.3
2018-Jun-16 16:31N 37°49' W 122°28'3 5.1
2018-Jun-16 15:58N 37°49' W 122°25'1 0.0
2018-Jun-16 03:13N 37°49' W 122°25'0 0.4
2018-Jun-16 02:29N 37°48' W 122°25'2 2.7
2018-Jun-16 01:41N 37°49' W 122°27'2 1.4
2018-Jun-16 00:10N 37°48' W 122°25'0 0.0
2018-Jun-15 22:13N 37°48' W 122°25'0 0.0
2018-Jun-15 21:58N 37°48' W 122°25'2 4.9
2018-Jun-15 21:30N 37°50' W 122°28'2 4.5
2018-Jun-15 21:00N 37°49' W 122°25'0 0.1
2018-Jun-15 18:42N 37°49' W 122°25'0 2.3
2018-Jun-15 18:30N 37°49' W 122°24'0 0.0
2018-Jun-14 20:11N 37°49' W 122°25'0 0.0
2018-Jun-14 02:36N 37°49' W 122°25'0 0.0
2018-Jun-14 02:21N 37°49' W 122°25'0 0.1
2018-Jun-14 01:58N 37°49' W 122°24'4 8.7
2018-Jun-14 01:30N 37°48' W 122°30'1 1.9
2018-Jun-14 01:00N 37°49' W 122°30'2 4.8
2018-Jun-14 00:30N 37°50' W 122°28'3 4.4
2018-Jun-13 23:47N 37°49' W 122°25'0 0.0
2018-Jun-13 23:29N 37°49' W 122°25'1 1.3
2018-Jun-13 23:00N 37°49' W 122°25'3 5.0
2018-Jun-13 22:30N 37°50' W 122°28'0 0.3
2018-Jun-13 22:00N 37°50' W 122°28'0 0.4
2018-Jun-13 21:30N 37°50' W 122°28'3 4.4
2018-Jun-13 20:51N 37°49' W 122°25'0 0.0
2018-Jun-13 20:27N 37°49' W 122°25'3 7.0
2018-Jun-13 20:00N 37°50' W 122°28'4 7.6
2018-Jun-13 19:29N 37°48' W 122°32'2 3.9
2018-Jun-13 19:00N 37°48' W 122°30'3 5.8
2018-Jun-13 18:30N 37°49' W 122°27'2 1.9
2018-Jun-13 17:39N 37°49' W 122°25'0 0.0
2018-Jun-13 17:27N 37°49' W 122°25'0 0.3
2018-Jun-13 17:01N 37°49' W 122°24'4 8.7
2018-Jun-13 16:30N 37°49' W 122°30'0 0.4
2018-Jun-13 16:00N 37°48' W 122°30'3 6.1
2018-Jun-13 15:30N 37°49' W 122°26'1 2.4
2018-Jun-13 14:53N 37°49' W 122°25'0 0.0
2018-Jun-13 02:41N 37°49' W 122°25'0 0.0
2018-Jun-13 02:29N 37°49' W 122°25'2 3.4
2018-Jun-13 01:59N 37°49' W 122°27'2 3.7
2018-Jun-13 01:30N 37°49' W 122°29'0 0.7
2018-Jun-13 01:01N 37°49' W 122°28'1 2.1
2018-Jun-13 00:30N 37°49' W 122°27'2 3.4
2018-Jun-12 23:52N 37°49' W 122°25'0 0.0
2018-Jun-12 23:25N 37°49' W 122°25'0 0.5
2018-Jun-12 23:00N 37°49' W 122°25'4 8.3
2018-Jun-12 22:31N 37°49' W 122°30'1 1.2
2018-Jun-12 22:00N 37°49' W 122°29'1 2.6
2018-Jun-12 21:30N 37°49' W 122°27'2 4.4
2018-Jun-12 21:00N 37°49' W 122°25'0 0.0
2018-Jun-12 20:30N 37°49' W 122°25'2 4.2
2018-Jun-12 20:00N 37°49' W 122°27'4 7.1
2018-Jun-12 19:28N 37°48' W 122°32'1 1.1
2018-Jun-12 19:00N 37°48' W 122°31'3 6.4
2018-Jun-12 18:30N 37°49' W 122°27'2 1.9
2018-Jun-12 17:23N 37°49' W 122°25'1 3.8
2018-Jun-12 17:00N 37°49' W 122°26'2 4.9
2018-Jun-12 16:30N 37°49' W 122°29'1 1.0
2018-Jun-12 16:00N 37°48' W 122°30'3 5.7
2018-Jun-12 15:30N 37°49' W 122°27'2 3.4
2018-Jun-12 15:00N 37°49' W 122°25'1 1.0
2018-Jun-12 14:30N 37°49' W 122°25'1 0.1
2018-Jun-12 05:28N 37°49' W 122°25'0 0.6
2018-Jun-12 05:00N 37°49' W 122°25'0 0.7
2018-Jun-12 04:30N 37°48' W 122°25'0 0.0
2018-Jun-12 04:00N 37°48' W 122°25'0 0.0
2018-Jun-12 03:29N 37°48' W 122°25'2 3.2
2018-Jun-12 03:00N 37°50' W 122°26'1 2.5
2018-Jun-12 02:30N 37°49' W 122°26'0 0.4
2018-Jun-12 01:16N 37°48' W 122°25'1 2.2
2018-Jun-12 01:00N 37°49' W 122°25'3 5.3
2018-Jun-12 00:29N 37°49' W 122°28'3 1.6
2018-Jun-11 22:51N 37°48' W 122°25'1 2.4
2018-Jun-11 22:29N 37°49' W 122°25'2 4.7
2018-Jun-11 22:01N 37°49' W 122°28'2 1.4
2018-Jun-11 20:25N 37°49' W 122°25'3 6.4
2018-Jun-11 20:00N 37°49' W 122°28'3 1.2
2018-Jun-11 17:51N 37°49' W 122°25'0 0.8
2018-Jun-11 17:17N 37°49' W 122°25'  
Track history (hours):
 
Tides and Currents Weather Stations Pressure Air Temp Water Temp Dewpoint Dewpoint Depression Visibility Wind Speed Wind Dir Waves Ship Positions

Happy Days

Owner: nazar, joe d, san francisco, CA. More information available from US FCC via Universal Licensing System and Coast Guard Vessel Documentation Center.

Last reported at 2018-Jun-21 02:49 UTC. Time now 2018-Jun-24 20:32 UTC.
Position N 37°49' W 122°25'.

Length 13 m.

Type: Fishing. MMSI: 366918840.

Date/timePositionNaut miles runAvg speedWind from/ knotsBaromVisibWave heightAir tempDewpointWater temp
2018-Jun-21 02:49N 37°49' W 122°25'0 0.0
2018-Jun-21 02:22N 37°49' W 122°25'0 0.5
2018-Jun-21 01:57N 37°49' W 122°24'0 1.0
2018-Jun-21 01:29N 37°48' W 122°25'0 0.1
2018-Jun-21 00:55N 37°49' W 122°25'1 3.5
2018-Jun-21 00:30N 37°50' W 122°26'1 2.4
2018-Jun-20 23:59N 37°49' W 122°25'0 0.5
2018-Jun-20 23:28N 37°48' W 122°25'0 0.3
2018-Jun-20 22:55N 37°49' W 122°25'0 0.3
2018-Jun-20 22:29N 37°49' W 122°25'3 5.7
2018-Jun-20 22:00N 37°49' W 122°28'1 0.9
2018-Jun-20 21:16N 37°49' W 122°29'1 2.5
2018-Jun-20 20:54N 37°48' W 122°30'4 8.8
2018-Jun-20 20:30N 37°49' W 122°25'0 0.5
2018-Jun-20 19:54N 37°49' W 122°25'512.2
2018-Jun-20 19:29N 37°47' W 122°31'2 0.3
2018-Jun-20 13:04N 37°48' W 122°30'118.8
2018-Jun-20 13:00N 37°49' W 122°28'3 5.2
2018-Jun-20 12:30N 37°49' W 122°25'0 0.0
2018-Jun-20 02:38N 37°49' W 122°25'0 0.0
2018-Jun-20 02:09N 37°49' W 122°25'0 0.3
2018-Jun-20 01:45N 37°49' W 122°24'414.1
2018-Jun-20 01:30N 37°49' W 122°29'1 1.1
2018-Jun-20 01:00N 37°48' W 122°29'3 5.3
2018-Jun-20 00:30N 37°50' W 122°26'2 3.1
2018-Jun-19 23:53N 37°49' W 122°25'0 0.0
2018-Jun-19 23:22N 37°49' W 122°25'4 9.8
2018-Jun-19 22:57N 37°48' W 122°30'4 7.5
2018-Jun-19 22:27N 37°47' W 122°34'3 6.7
2018-Jun-19 22:00N 37°48' W 122°31'3 6.7
2018-Jun-19 21:30N 37°49' W 122°27'2 3.5
2018-Jun-19 20:57N 37°49' W 122°25'0 0.0
2018-Jun-19 20:20N 37°49' W 122°25'310.3
2018-Jun-19 20:00N 37°49' W 122°29'5 8.6
2018-Jun-19 19:28N 37°48' W 122°35'2 4.2
2018-Jun-19 19:00N 37°48' W 122°32'4 7.5
2018-Jun-19 18:30N 37°49' W 122°28'2 4.7
2018-Jun-19 17:59N 37°49' W 122°25'0 0.3
2018-Jun-19 17:26N 37°49' W 122°24'4 8.6
2018-Jun-19 17:00N 37°49' W 122°29'3 6.4
2018-Jun-19 16:29N 37°47' W 122°33'1 2.1
2018-Jun-19 15:56N 37°48' W 122°33'410.4
2018-Jun-19 15:30N 37°49' W 122°27'2 4.0
2018-Jun-19 15:00N 37°49' W 122°25'0 0.0
2018-Jun-19 03:53N 37°49' W 122°25'1 2.8
2018-Jun-19 03:24N 37°49' W 122°26'1 1.7
2018-Jun-19 02:59N 37°49' W 122°25'1 1.5
2018-Jun-19 02:30N 37°49' W 122°25'0 0.7
2018-Jun-19 02:00N 37°49' W 122°25'4 8.1
2018-Jun-19 01:30N 37°49' W 122°30'0 0.9
2018-Jun-19 01:00N 37°49' W 122°29'1 2.4
2018-Jun-19 00:30N 37°49' W 122°28'3 2.3
2018-Jun-18 23:23N 37°49' W 122°25'3 7.5
2018-Jun-18 23:01N 37°49' W 122°28'4 6.4
2018-Jun-18 22:28N 37°47' W 122°32'2 3.6
2018-Jun-18 22:00N 37°49' W 122°32'4 7.7
2018-Jun-18 21:30N 37°49' W 122°27'2 3.6
2018-Jun-18 20:58N 37°49' W 122°25'0 0.0
2018-Jun-18 20:28N 37°49' W 122°25'2 4.1
2018-Jun-18 20:00N 37°49' W 122°27'5 8.7
2018-Jun-18 19:27N 37°48' W 122°33'1 2.0
2018-Jun-18 19:00N 37°48' W 122°32'4 8.0
2018-Jun-18 18:30N 37°49' W 122°27'2 4.4
2018-Jun-18 18:00N 37°49' W 122°25'0 0.2
2018-Jun-18 17:27N 37°49' W 122°24'611.6
2018-Jun-18 16:58N 37°48' W 122°32'2 4.0
2018-Jun-18 16:30N 37°48' W 122°34'1 2.5
2018-Jun-18 15:56N 37°47' W 122°32'4 8.3
2018-Jun-18 15:30N 37°49' W 122°28'3 5.1
2018-Jun-18 14:54N 37°49' W 122°25'1 1.2
2018-Jun-18 14:28N 37°49' W 122°25'1 0.1
2018-Jun-18 04:40N 37°49' W 122°24'0 0.8
2018-Jun-18 04:04N 37°48' W 122°25'0 3.2
2018-Jun-18 03:59N 37°49' W 122°25'3 5.4
2018-Jun-18 03:30N 37°49' W 122°29'3 1.7
2018-Jun-18 01:47N 37°49' W 122°25'1 4.6
2018-Jun-18 01:30N 37°50' W 122°25'1 2.2
2018-Jun-18 01:00N 37°49' W 122°26'0 0.4
2018-Jun-17 23:50N 37°49' W 122°25'2 7.2
2018-Jun-17 23:30N 37°49' W 122°28'2 1.5
2018-Jun-17 21:53N 37°49' W 122°25'2 6.4
2018-Jun-17 21:30N 37°49' W 122°28'2 1.7
2018-Jun-17 20:02N 37°48' W 122°25'0 0.1
2018-Jun-17 19:58N 37°48' W 122°25'1 0.0
2018-Jun-17 01:20N 37°49' W 122°26'1 1.9
2018-Jun-17 00:51N 37°49' W 122°25'0 0.0
2018-Jun-17 00:27N 37°49' W 122°25'2 5.0
2018-Jun-17 00:00N 37°49' W 122°27'3 5.7
2018-Jun-16 23:30N 37°48' W 122°31'1 1.3
2018-Jun-16 23:00N 37°48' W 122°30'3 5.6
2018-Jun-16 22:30N 37°49' W 122°27'2 2.5
2018-Jun-16 21:45N 37°49' W 122°25'0 0.3
2018-Jun-16 21:23N 37°49' W 122°24'410.4
2018-Jun-16 20:59N 37°48' W 122°30'2 3.5
2018-Jun-16 20:30N 37°48' W 122°32'2 4.1
2018-Jun-16 19:58N 37°49' W 122°29'3 7.3
2018-Jun-16 19:30N 37°50' W 122°25'2 3.9
2018-Jun-16 18:58N 37°49' W 122°25'0 0.0
2018-Jun-16 18:28N 37°49' W 122°25'0 0.0
2018-Jun-16 17:58N 37°49' W 122°25'4 7.7
2018-Jun-16 17:30N 37°49' W 122°29'3 5.1
2018-Jun-16 17:00N 37°47' W 122°32'4 7.3
2018-Jun-16 16:31N 37°49' W 122°28'3 5.1
2018-Jun-16 15:58N 37°49' W 122°25'1 0.0
2018-Jun-16 03:13N 37°49' W 122°25'0 0.4
2018-Jun-16 02:29N 37°48' W 122°25'2 2.7
2018-Jun-16 01:41N 37°49' W 122°27'2 1.4
2018-Jun-16 00:10N 37°48' W 122°25'0 0.0
2018-Jun-15 22:13N 37°48' W 122°25'0 0.0
2018-Jun-15 21:58N 37°48' W 122°25'2 4.9
2018-Jun-15 21:30N 37°50' W 122°28'2 4.5
2018-Jun-15 21:00N 37°49' W 122°25'0 0.1
2018-Jun-15 18:42N 37°49' W 122°25'0 2.3
2018-Jun-15 18:30N 37°49' W 122°24'0 0.0
2018-Jun-14 20:11N 37°49' W 122°25'0 0.0
2018-Jun-14 02:36N 37°49' W 122°25'0 0.0
2018-Jun-14 02:21N 37°49' W 122°25'0 0.1
2018-Jun-14 01:58N 37°49' W 122°24'4 8.7
2018-Jun-14 01:30N 37°48' W 122°30'1 1.9
2018-Jun-14 01:00N 37°49' W 122°30'2 4.8
2018-Jun-14 00:30N 37°50' W 122°28'3 4.4
2018-Jun-13 23:47N 37°49' W 122°25'0 0.0
2018-Jun-13 23:29N 37°49' W 122°25'1 1.3
2018-Jun-13 23:00N 37°49' W 122°25'3 5.0
2018-Jun-13 22:30N 37°50' W 122°28'0 0.3
2018-Jun-13 22:00N 37°50' W 122°28'0 0.4
2018-Jun-13 21:30N 37°50' W 122°28'3 4.4
2018-Jun-13 20:51N 37°49' W 122°25'0 0.0
2018-Jun-13 20:27N 37°49' W 122°25'3 7.0
2018-Jun-13 20:00N 37°50' W 122°28'4 7.6
2018-Jun-13 19:29N 37°48' W 122°32'2 3.9
2018-Jun-13 19:00N 37°48' W 122°30'3 5.8
2018-Jun-13 18:30N 37°49' W 122°27'2 1.9
2018-Jun-13 17:39N 37°49' W 122°25'0 0.0
2018-Jun-13 17:27N 37°49' W 122°25'0 0.3
2018-Jun-13 17:01N 37°49' W 122°24'4 8.7
2018-Jun-13 16:30N 37°49' W 122°30'0 0.4
2018-Jun-13 16:00N 37°48' W 122°30'3 6.1
2018-Jun-13 15:30N 37°49' W 122°26'1 2.4
2018-Jun-13 14:53N 37°49' W 122°25'0 0.0
2018-Jun-13 02:41N 37°49' W 122°25'0 0.0
2018-Jun-13 02:29N 37°49' W 122°25'2 3.4
2018-Jun-13 01:59N 37°49' W 122°27'2 3.7
2018-Jun-13 01:30N 37°49' W 122°29'0 0.7
2018-Jun-13 01:01N 37°49' W 122°28'1 2.1
2018-Jun-13 00:30N 37°49' W 122°27'2 3.4
2018-Jun-12 23:52N 37°49' W 122°25'0 0.0
2018-Jun-12 23:25N 37°49' W 122°25'0 0.5
2018-Jun-12 23:00N 37°49' W 122°25'4 8.3
2018-Jun-12 22:31N 37°49' W 122°30'1 1.2
2018-Jun-12 22:00N 37°49' W 122°29'1 2.6
2018-Jun-12 21:30N 37°49' W 122°27'2 4.4
2018-Jun-12 21:00N 37°49' W 122°25'0 0.0
2018-Jun-12 20:30N 37°49' W 122°25'2 4.2
2018-Jun-12 20:00N 37°49' W 122°27'4 7.1
2018-Jun-12 19:28N 37°48' W 122°32'1 1.1
2018-Jun-12 19:00N 37°48' W 122°31'3 6.4
2018-Jun-12 18:30N 37°49' W 122°27'2 1.9
2018-Jun-12 17:23N 37°49' W 122°25'1 3.8
2018-Jun-12 17:00N 37°49' W 122°26'2 4.9
2018-Jun-12 16:30N 37°49' W 122°29'1 1.0
2018-Jun-12 16:00N 37°48' W 122°30'3 5.7
2018-Jun-12 15:30N 37°49' W 122°27'2 3.4
2018-Jun-12 15:00N 37°49' W 122°25'1 1.0
2018-Jun-12 14:30N 37°49' W 122°25'1 0.1
2018-Jun-12 05:28N 37°49' W 122°25'0 0.6
2018-Jun-12 05:00N 37°49' W 122°25'0 0.7
2018-Jun-12 04:30N 37°48' W 122°25'0 0.0
2018-Jun-12 04:00N 37°48' W 122°25'0 0.0
2018-Jun-12 03:29N 37°48' W 122°25'2 3.2
2018-Jun-12 03:00N 37°50' W 122°26'1 2.5
2018-Jun-12 02:30N 37°49' W 122°26'0 0.4
2018-Jun-12 01:16N 37°48' W 122°25'1 2.2
2018-Jun-12 01:00N 37°49' W 122°25'3 5.3
2018-Jun-12 00:29N 37°49' W 122°28'3 1.6
2018-Jun-11 22:51N 37°48' W 122°25'1 2.4
2018-Jun-11 22:29N 37°49' W 122°25'2 4.7
2018-Jun-11 22:01N 37°49' W 122°28'2 1.4
2018-Jun-11 20:25N 37°49' W 122°25'3 6.4
2018-Jun-11 20:00N 37°49' W 122°28'3 1.2
2018-Jun-11 17:51N 37°49' W 122°25'0 0.8
2018-Jun-11 17:17N 37°49' W 122°25'  

Dump ship's entire track history